Terminal Aerodrome Forecast
Issued by NWS Mt. Holly, NJ

Home | Current Version | Previous Version | Text Only | Print | Product List | Glossary On
Versions: 1 2 3 4 5 6 7 8 9 10 11 12 13 14 15 16 17 18 19 20 21 22 23 24 25 26 27 28 29 30 31 32 33 34 35 36 37 38 39 40 41 42 43 44 45 46 47 48 49 50
000
FTUS41 KPHI 231300 AAA
TAFABE
TAF AMD
KABE 231312Z 2313/2412 07005KT P6SM -SHRA SCT025 OVC050
      TEMPO 2313/2316 4SM RA BKN025 OVC045
     FM231800 08005KT P6SM -SHRA SCT025 BKN050
     FM232200 10005KT P6SM BKN050 BKN120
     FM240400 VRB02KT P6SM SCT050 SCT120
     FM240900 00000KT 5SM BR SCT120=

USA.gov is the U.S. government's official web portal to all federal, state and local government web resources and services.